^^
Station Historical Data
 
Daily Summary for December 10, 2018 Units:  English    Metric   Both
« Previous Day
Next Day »
Daily Weekly Monthly Yearly Custom
  Current: High: Low: Average:
Temperature: 55 °F TemperatureF °F 53.1 °F 55.4 °F
Dew Point: 44.7 °F DewpointF °F 44.6 °F 49.3 °F
Humidity: 68% Humidity% 66% 80%
Wind Speed: 0mph WindSpeedMPHmph 0mph 0mph
Wind Gust: 0mph WindSpeedGustMPHmph - -
WindCalm - - North
Pressure: 30.11 in PressureIn in 29.95 in -
Precipitation: 0 in      
Historical Graphs
 
 
Tabular Data for December 10, 2018
Time Temperature Dew Point Pressure Wind Wind Speed Wind Gust Humidity Rainfall Rate (Hourly) solar Conditions
TemperatureF °F DewpointF °F PressureIn in Calm     Humidity% HourlyPrecipIn in SolarRadiationWatts/m^2 W/m2 Conditions
00:04 62.1 °F 56.8 °F 29.95 in Calm     83% 0 in 0.00 W/m2 RA
00:09 62.1 °F 56.8 °F 29.95 in Calm     83% 0 in 0.00 W/m2 RA
00:14 62.1 °F 56.8 °F 29.95 in Calm     83% 0 in 0.00 W/m2 OVC
00:19 62.1 °F 56.8 °F 29.95 in Calm     83% 0 in 0.00 W/m2 OVC
00:24 62.1 °F 56.8 °F 29.95 in Calm     83% 0 in 0.00 W/m2 OVC
00:29 62.1 °F 56.8 °F 29.95 in Calm     83% 0 in 0.00 W/m2 OVC
00:34 62.1 °F 56.8 °F 29.95 in Calm     83% 0 in 0.00 W/m2 OVC
00:39 62.1 °F 56.8 °F 29.95 in Calm     83% 0 in 0.00 W/m2 OVC
00:44 62.1 °F 56.8 °F 29.95 in Calm     83% 0 in 0.00 W/m2 OVC
00:49 62.1 °F 56.8 °F 29.95 in Calm     83% 0 in 0.00 W/m2 OVC
00:54 62.1 °F 56.8 °F 29.95 in Calm     83% 0 in 0.00 W/m2 OVC
00:59 62.1 °F 56.8 °F 29.95 in Calm     83% 0 in 0.00 W/m2 OVC
01:04 60.1 °F 55.9 °F 29.95 in Calm     86% 0 in 0.00 W/m2 OVC
01:09 60.1 °F 55.9 °F 29.95 in Calm     86% 0 in 0.00 W/m2 OVC
01:14 60.1 °F 55.9 °F 29.95 in Calm     86% 0 in 0.00 W/m2 OVC
01:19 60.1 °F 55.9 °F 29.95 in Calm     86% 0 in 0.00 W/m2 OVC
01:24 60.1 °F 55.9 °F 29.95 in Calm     86% 0 in 0.00 W/m2 OVC
01:29 60.1 °F 55.9 °F 29.95 in Calm     86% 0 in 0.00 W/m2 OVC
01:34 60.1 °F 55.9 °F 29.95 in Calm     86% 0 in 0.00 W/m2 OVC
01:39 60.1 °F 55.9 °F 29.95 in Calm     86% 0 in 0.00 W/m2 OVC
01:44 60.1 °F 55.9 °F 29.95 in Calm     86% 0 in 0.00 W/m2 OVC
01:49 60.1 °F 55.9 °F 29.95 in Calm     86% 0 in 0.00 W/m2 OVC
01:54 60.1 °F 55.9 °F 29.95 in Calm     86% 0 in 0.00 W/m2 OVC
01:59 60.1 °F 55.9 °F 29.95 in Calm     86% 0 in 0.00 W/m2 OVC
02:04 57.9 °F 55.9 °F 29.96 in Calm     93% 0 in 0.00 W/m2 OVC
02:09 57.9 °F 55.9 °F 29.96 in Calm     93% 0 in 0.00 W/m2 OVC
02:14 57.9 °F 55.9 °F 29.96 in Calm     93% 0 in 0.00 W/m2 OVC
02:19 57.9 °F 55.9 °F 29.96 in Calm     93% 0 in 0.00 W/m2 OVC
02:24 57.9 °F 55.9 °F 29.96 in Calm     93% 0 in 0.00 W/m2 OVC
02:29 57.9 °F 55.9 °F 29.96 in Calm     93% 0 in 0.00 W/m2 OVC
02:34 57.9 °F 55.9 °F 29.96 in Calm     93% 0 in 0.00 W/m2 OVC
02:39 57.9 °F 55.9 °F 29.96 in Calm     93% 0 in 0.00 W/m2 OVC
02:44 57.9 °F 55.9 °F 29.96 in Calm     93% 0 in 0.00 W/m2 OVC
02:49 57.9 °F 55.9 °F 29.96 in Calm     93% 0 in 0.00 W/m2 OVC
02:54 57.9 °F 55.9 °F 29.96 in Calm     93% 0 in 0.00 W/m2 OVC
02:59 57.9 °F 55.9 °F 29.96 in Calm     93% 0 in 0.00 W/m2 OVC
03:04 57 °F 55 °F 29.96 in Calm     93% 0 in 0.00 W/m2 OVC
03:09 57 °F 55 °F 29.96 in Calm     93% 0 in 0.00 W/m2 OVC
03:14 57 °F 55 °F 29.96 in Calm     93% 0 in 0.00 W/m2 OVC
03:19 55.9 °F 54.8 °F 29.96 in Calm     96% 0 in 0.00 W/m2 OVC
03:24 55.9 °F 54.8 °F 29.96 in Calm     96% 0 in 0.00 W/m2 OVC
03:29 55.9 °F 54.8 °F 29.96 in Calm     96% 0 in 0.00 W/m2 OVC
03:34 55.9 °F 54.8 °F 29.96 in Calm     96% 0 in 0.00 W/m2 OVC
03:39 55.9 °F 54.8 °F 29.96 in Calm     96% 0 in 0.00 W/m2 OVC
03:44 55.9 °F 54.8 °F 29.96 in Calm     96% 0 in 0.00 W/m2 OVC
03:49 55 °F 53.1 °F 29.97 in Calm     93% 0 in 0.00 W/m2 OVC
03:54 55 °F 53.1 °F 29.97 in Calm     93% 0 in 0.00 W/m2 OVC
03:59 55 °F 53.1 °F 29.97 in Calm     93% 0 in 0.00 W/m2 OVC
04:04 55 °F 51.9 °F 29.98 in Calm     89% 0 in 0.00 W/m2 BKN
04:09 55 °F 51.9 °F 29.98 in Calm     89% 0 in 0.00 W/m2 BKN
04:14 55 °F 51.9 °F 29.98 in Calm     89% 0 in 0.00 W/m2 BKN
04:19 55 °F 51.9 °F 29.98 in Calm     89% 0 in 0.00 W/m2 BKN
04:24 55 °F 51.9 °F 29.98 in Calm     89% 0 in 0.00 W/m2 BKN
04:29 55 °F 51.9 °F 29.98 in Calm     89% 0 in 0.00 W/m2 BKN
04:34 55 °F 51.9 °F 29.98 in Calm     89% 0 in 0.00 W/m2 BKN
04:39 55 °F 51.9 °F 29.98 in Calm     89% 0 in 0.00 W/m2 BKN
04:44 55 °F 51.9 °F 29.98 in Calm     89% 0 in 0.00 W/m2 BKN
04:49 55 °F 51.9 °F 29.98 in Calm     89% 0 in 0.00 W/m2 BKN
04:54 55 °F 51.9 °F 29.98 in Calm     89% 0 in 0.00 W/m2 BKN
04:59 55 °F 51.9 °F 29.98 in Calm     89% 0 in 0.00 W/m2 BKN
05:04 55 °F 50 °F 29.98 in Calm     83% 0 in 0.00 W/m2 OVC
05:09 55 °F 50 °F 29.98 in Calm     83% 0 in 0.00 W/m2 OVC
05:14 55 °F 50 °F 29.98 in Calm     83% 0 in 0.00 W/m2 OVC
05:19 55 °F 50 °F 29.98 in Calm     83% 0 in 0.00 W/m2 OVC
05:24 55 °F 50 °F 29.98 in Calm     83% 0 in 0.00 W/m2 OVC
05:29 55 °F 50 °F 29.98 in Calm     83% 0 in 0.00 W/m2 OVC
05:34 55 °F 50 °F 29.98 in Calm     83% 0 in 0.00 W/m2 OVC
05:39 55 °F 50 °F 29.98 in Calm     83% 0 in 0.00 W/m2 OVC
05:44 55 °F 50 °F 29.98 in Calm     83% 0 in 0.00 W/m2 OVC
05:49 55 °F 50 °F 29.98 in Calm     83% 0 in 0.00 W/m2 OVC
05:54 55 °F 50 °F 29.98 in Calm     83% 0 in 0.00 W/m2 OVC
05:59 55 °F 50 °F 29.98 in Calm     83% 0 in 0.00 W/m2 OVC
06:04 54 °F 48.6 °F 30.01 in Calm     82% 0 in 0.00 W/m2 OVC
06:09 54 °F 48.6 °F 30.01 in Calm     82% 0 in 0.00 W/m2 OVC
06:14 54 °F 48.6 °F 30.01 in Calm     82% 0 in 0.00 W/m2 OVC
06:19 54 °F 48.6 °F 30.01 in Calm     82% 0 in 0.00 W/m2 OVC
06:24 54 °F 48.6 °F 30.01 in Calm     82% 0 in 0.00 W/m2 OVC
06:29 54 °F 48.6 °F 30.01 in Calm     82% 0 in 0.00 W/m2 OVC
06:34 54 °F 47.9 °F 30.02 in Calm     80% 0 in 0.00 W/m2 OVC
06:39 54 °F 47.9 °F 30.02 in Calm     80% 0 in 0.00 W/m2 OVC
06:44 54 °F 47.9 °F 30.02 in Calm     80% 0 in 0.00 W/m2 OVC
06:49 54 °F 47.9 °F 30.02 in Calm     80% 0 in 0.00 W/m2 OVC
06:54 54 °F 47.9 °F 30.02 in Calm     80% 0 in 0.00 W/m2 OVC
06:59 54 °F 47.9 °F 30.02 in Calm     80% 0 in 0.00 W/m2 OVC
07:04 53.1 °F 46.7 °F 30.03 in Calm     79% 0 in 0.00 W/m2 OVC
07:09 53.1 °F 46.7 °F 30.03 in Calm     79% 0 in 0.00 W/m2 OVC
07:14 53.1 °F 46.7 °F 30.03 in Calm     79% 0 in 0.00 W/m2 OVC
07:19 53.1 °F 46.7 °F 30.03 in Calm     79% 0 in 0.00 W/m2 OVC
07:24 53.1 °F 46.7 °F 30.03 in Calm     79% 0 in 0.00 W/m2 OVC
07:29 53.1 °F 46.7 °F 30.03 in Calm     79% 0 in 0.00 W/m2 OVC
07:34 53.1 °F 46.7 °F 30.03 in Calm     79% 0 in 0.00 W/m2 OVC
07:39 53.1 °F 46.7 °F 30.03 in Calm     79% 0 in 0.00 W/m2 OVC
07:44 53.1 °F 46.7 °F 30.03 in Calm     79% 0 in 0.00 W/m2 OVC
07:49 53.1 °F 46.7 °F 30.03 in Calm     79% 0 in 0.00 W/m2 OVC
07:54 53.1 °F 46.7 °F 30.03 in Calm     79% 0 in 0.00 W/m2 OVC
07:59 53.1 °F 46.7 °F 30.03 in Calm     79% 0 in 0.00 W/m2 OVC
08:04 53.1 °F 44.6 °F 30.05 in Calm     73% 0 in 0.00 W/m2 OVC
08:09 53.1 °F 44.6 °F 30.05 in Calm     73% 0 in 0.00 W/m2 OVC
08:14 53.1 °F 44.6 °F 30.05 in Calm     73% 0 in 0.00 W/m2 OVC
08:19 53.1 °F 44.6 °F 30.05 in Calm     73% 0 in 0.00 W/m2 OVC
08:24 53.1 °F 44.6 °F 30.05 in Calm     73% 0 in 0.00 W/m2 OVC
08:29 53.1 °F 44.6 °F 30.05 in Calm     73% 0 in 0.00 W/m2 OVC
08:34 53.1 °F 44.6 °F 30.06 in Calm     73% 0 in 0.00 W/m2 OVC
08:39 53.1 °F 44.6 °F 30.06 in Calm     73% 0 in 0.00 W/m2 OVC
08:44 53.1 °F 44.6 °F 30.06 in Calm     73% 0 in 0.00 W/m2 OVC
08:49 53.1 °F 44.6 °F 30.06 in Calm     73% 0 in 0.00 W/m2 OVC
08:54 53.1 °F 44.6 °F 30.06 in Calm     73% 0 in 0.00 W/m2 OVC
08:59 53.1 °F 44.6 °F 30.06 in Calm     73% 0 in 0.00 W/m2 OVC
09:04 53.1 °F 44.6 °F 30.08 in Calm     73% 0 in 0.00 W/m2 OVC
09:09 53.1 °F 44.6 °F 30.08 in Calm     73% 0 in 0.00 W/m2 OVC
09:14 53.1 °F 44.6 °F 30.08 in Calm     73% 0 in 0.00 W/m2 OVC
09:19 53.1 °F 44.6 °F 30.08 in Calm     73% 0 in 0.00 W/m2 OVC
09:24 53.1 °F 44.6 °F 30.08 in Calm     73% 0 in 0.00 W/m2 OVC
09:29 53.1 °F 44.6 °F 30.08 in Calm     73% 0 in 0.00 W/m2 OVC
09:34 53.1 °F 44.6 °F 30.08 in Calm     73% 0 in 0.00 W/m2 OVC
09:39 53.1 °F 44.6 °F 30.08 in Calm     73% 0 in 0.00 W/m2 OVC
09:44 53.1 °F 44.6 °F 30.08 in Calm     73% 0 in 0.00 W/m2 OVC
09:49 53.1 °F 44.6 °F 30.08 in Calm     73% 0 in 0.00 W/m2 OVC
09:54 53.1 °F 44.6 °F 30.08 in Calm     73% 0 in 0.00 W/m2 OVC
09:59 53.1 °F 44.6 °F 30.08 in Calm     73% 0 in 0.00 W/m2 OVC
10:04 55.9 °F 44.7 °F 30.10 in Calm     66% 0 in 0.00 W/m2 OVC
10:09 55.9 °F 44.7 °F 30.10 in Calm     66% 0 in 0.00 W/m2 OVC
10:14 55.9 °F 44.7 °F 30.10 in Calm     66% 0 in 0.00 W/m2 OVC
10:19 55.9 °F 44.7 °F 30.10 in Calm     66% 0 in 0.00 W/m2 OVC
10:24 55.9 °F 44.7 °F 30.10 in Calm     66% 0 in 0.00 W/m2 OVC
10:29 55.9 °F 44.7 °F 30.10 in Calm     66% 0 in 0.00 W/m2 OVC
10:34 55.9 °F 44.7 °F 30.10 in Calm     66% 0 in 0.00 W/m2 OVC
10:39 55.9 °F 44.7 °F 30.10 in Calm     66% 0 in 0.00 W/m2 OVC
10:44 55.9 °F 44.7 °F 30.10 in Calm     66% 0 in 0.00 W/m2 OVC
10:49 55.9 °F 44.7 °F 30.10 in Calm     66% 0 in 0.00 W/m2 OVC
10:54 55.9 °F 44.7 °F 30.10 in Calm     66% 0 in 0.00 W/m2 OVC
10:59 55.9 °F 44.7 °F 30.10 in Calm     66% 0 in 0.00 W/m2 OVC
11:04 54 °F 44.8 °F 30.11 in Calm     71% 0 in 0.00 W/m2 OVC
11:09 54 °F 44.8 °F 30.11 in Calm     71% 0 in 0.00 W/m2 OVC
11:14 54 °F 44.8 °F 30.11 in Calm     71% 0 in 0.00 W/m2 OVC
11:19 54 °F 44.8 °F 30.11 in Calm     71% 0 in 0.00 W/m2 OVC
11:24 54 °F 44.8 °F 30.11 in Calm     71% 0 in 0.00 W/m2 OVC
11:29 54 °F 44.8 °F 30.11 in Calm     71% 0 in 0.00 W/m2 OVC
11:34 54 °F 44.8 °F 30.11 in Calm     71% 0 in 0.00 W/m2 OVC
11:39 54 °F 44.8 °F 30.11 in Calm     71% 0 in 0.00 W/m2 OVC
11:44 54 °F 44.8 °F 30.11 in Calm     71% 0 in 0.00 W/m2 OVC
11:49 54 °F 44.8 °F 30.11 in Calm     71% 0 in 0.00 W/m2 OVC
11:54 54 °F 44.8 °F 30.11 in Calm     71% 0 in 0.00 W/m2 OVC
11:59 54 °F 44.8 °F 30.11 in Calm     71% 0 in 0.00 W/m2 OVC
12:04 55 °F 44.7 °F 30.11 in Calm     68% 0 in 0.00 W/m2 OVC
12:09 55 °F 44.7 °F 30.11 in Calm     68% 0 in 0.00 W/m2 OVC
12:14 55 °F 44.7 °F 30.11 in Calm     68% 0 in 0.00 W/m2 OVC
12:19 55 °F 44.7 °F 30.11 in Calm     68% 0 in 0.00 W/m2 OVC
12:24 55 °F 44.7 °F 30.11 in Calm     68% 0 in 0.00 W/m2 OVC
12:29 55 °F 44.7 °F 30.11 in Calm     68% 0 in 0.00 W/m2 OVC
Lake Mary, FL, USA
Compliments of Weather Underground - 1.5 mb